Terminal Aerodrome Forecast
Issued by NWS

Home | Current Version | Previous Version | Text Only | Print | Product List | Glossary On
Versions: 1 2 3 4 5 6 7 8 9 10 11 12 13 14
000
FTAK31 PAJN 231700
TAFAGY
TAF
PAGY 231740Z 2318/2418 21015G25KT P6SM OVC060
     FM232100 21018G28KT P6SM BKN050 BKN100
     FM240300 21013G18KT P6SM OVC050
     FM240600 21010KT P6SM VCSH SCT025 OVC050
     FM240900 21008KT P6SM VCSH OVC040
     FM241500 21006KT P6SM VCSH SCT020 OVC040
      AMD LTD TO CLD VIS AND WIND=

USA.gov is the U.S. government's official web portal to all federal, state and local government web resources and services.